sensor_id;sensor_type;location;lat;lon;timestamp;pressure;altitude;pressure_sealevel;temperature
22322;BMP180;11328;53.928;18.522;2023-08-07T00:02:25;98364.00;;;17.90
22322;BMP180;11328;53.928;18.522;2023-08-07T00:04:53;98371.00;;;17.80
22322;BMP180;11328;53.928;18.522;2023-08-07T00:07:20;98369.00;;;17.80
22322;BMP180;11328;53.928;18.522;2023-08-07T00:09:47;98364.00;;;17.80
22322;BMP180;11328;53.928;18.522;2023-08-07T00:12:14;98366.00;;;17.80
22322;BMP180;11328;53.928;18.522;2023-08-07T00:14:41;98343.00;;;17.70
22322;BMP180;11328;53.928;18.522;2023-08-07T00:17:08;98357.00;;;17.80
22322;BMP180;11328;53.928;18.522;2023-08-07T00:19:35;98359.00;;;17.70
22322;BMP180;11328;53.928;18.522;2023-08-07T00:22:02;98365.00;;;17.80
22322;BMP180;11328;53.928;18.522;2023-08-07T00:24:29;98359.00;;;17.90
22322;BMP180;11328;53.928;18.522;2023-08-07T00:26:56;98358.00;;;17.90
22322;BMP180;11328;53.928;18.522;2023-08-07T00:29:23;98366.00;;;18.00
22322;BMP180;11328;53.928;18.522;2023-08-07T00:31:50;98361.00;;;18.00
22322;BMP180;11328;53.928;18.522;2023-08-07T00:34:17;98360.00;;;17.90
22322;BMP180;11328;53.928;18.522;2023-08-07T00:36:45;98368.00;;;18.00
22322;BMP180;11328;53.928;18.522;2023-08-07T00:39:11;98372.00;;;17.90
22322;BMP180;11328;53.928;18.522;2023-08-07T00:41:38;98357.00;;;17.90
22322;BMP180;11328;53.928;18.522;2023-08-07T00:44:05;98373.00;;;18.00
22322;BMP180;11328;53.928;18.522;2023-08-07T00:46:33;98370.00;;;18.10
22322;BMP180;11328;53.928;18.522;2023-08-07T00:49:02;98365.00;;;18.00
22322;BMP180;11328;53.928;18.522;2023-08-07T00:51:30;98364.00;;;18.00
22322;BMP180;11328;53.928;18.522;2023-08-07T00:53:58;98364.00;;;18.00
22322;BMP180;11328;53.928;18.522;2023-08-07T00:56:26;98354.00;;;18.00
22322;BMP180;11328;53.928;18.522;2023-08-07T00:58:54;98356.00;;;18.00
22322;BMP180;11328;53.928;18.522;2023-08-07T01:01:21;98359.00;;;18.00
22322;BMP180;11328;53.928;18.522;2023-08-07T01:03:49;98349.00;;;18.00
22322;BMP180;11328;53.928;18.522;2023-08-07T01:06:15;98357.00;;;18.00
22322;BMP180;11328;53.928;18.522;2023-08-07T01:08:43;98356.00;;;18.10
22322;BMP180;11328;53.928;18.522;2023-08-07T01:11:39;98355.00;;;18.10
22322;BMP180;11328;53.928;18.522;2023-08-07T01:14:54;98336.00;;;18.10
22322;BMP180;11328;53.928;18.522;2023-08-07T01:17:23;98349.00;;;18.00
22322;BMP180;11328;53.928;18.522;2023-08-07T01:19:51;98353.00;;;18.00
22322;BMP180;11328;53.928;18.522;2023-08-07T01:22:21;98347.00;;;17.90
22322;BMP180;11328;53.928;18.522;2023-08-07T01:24:50;98345.00;;;17.90
22322;BMP180;11328;53.928;18.522;2023-08-07T01:35:57;98348.00;;;17.70
22322;BMP180;11328;53.928;18.522;2023-08-07T01:38:26;98344.00;;;17.80
22322;BMP180;11328;53.928;18.522;2023-08-07T01:40:54;98335.00;;;17.80
22322;BMP180;11328;53.928;18.522;2023-08-07T01:43:22;98334.00;;;17.70
22322;BMP180;11328;53.928;18.522;2023-08-07T01:45:49;98338.00;;;17.70
22322;BMP180;11328;53.928;18.522;2023-08-07T01:48:16;98334.00;;;17.60
22322;BMP180;11328;53.928;18.522;2023-08-07T01:50:43;98331.00;;;17.60
22322;BMP180;11328;53.928;18.522;2023-08-07T01:53:10;98326.00;;;17.50
22322;BMP180;11328;53.928;18.522;2023-08-07T01:55:37;98335.00;;;17.60
22322;BMP180;11328;53.928;18.522;2023-08-07T01:58:04;98335.00;;;17.50
22322;BMP180;11328;53.928;18.522;2023-08-07T02:00:31;98328.00;;;17.50
22322;BMP180;11328;53.928;18.522;2023-08-07T02:02:58;98324.00;;;17.50
22322;BMP180;11328;53.928;18.522;2023-08-07T02:05:25;98322.00;;;17.50
22322;BMP180;11328;53.928;18.522;2023-08-07T02:07:52;98322.00;;;17.50
22322;BMP180;11328;53.928;18.522;2023-08-07T02:10:19;98332.00;;;17.40
22322;BMP180;11328;53.928;18.522;2023-08-07T02:12:46;98320.00;;;17.40
22322;BMP180;11328;53.928;18.522;2023-08-07T02:15:13;98312.00;;;17.40
22322;BMP180;11328;53.928;18.522;2023-08-07T02:17:40;98316.00;;;17.40
22322;BMP180;11328;53.928;18.522;2023-08-07T02:20:09;98310.00;;;17.30
22322;BMP180;11328;53.928;18.522;2023-08-07T02:22:36;98318.00;;;17.30
22322;BMP180;11328;53.928;18.522;2023-08-07T02:25:03;98303.00;;;17.40
22322;BMP180;11328;53.928;18.522;2023-08-07T02:27:30;98294.00;;;17.30
22322;BMP180;11328;53.928;18.522;2023-08-07T02:29:57;98313.00;;;17.20
22322;BMP180;11328;53.928;18.522;2023-08-07T02:32:24;98315.00;;;17.30
22322;BMP180;11328;53.928;18.522;2023-08-07T02:34:51;98310.00;;;17.40
22322;BMP180;11328;53.928;18.522;2023-08-07T02:37:18;98318.00;;;17.40
22322;BMP180;11328;53.928;18.522;2023-08-07T02:39:47;98315.00;;;17.30
22322;BMP180;11328;53.928;18.522;2023-08-07T02:42:14;98328.00;;;17.30
22322;BMP180;11328;53.928;18.522;2023-08-07T02:44:41;98321.00;;;17.30
22322;BMP180;11328;53.928;18.522;2023-08-07T02:47:08;98334.00;;;17.30
22322;BMP180;11328;53.928;18.522;2023-08-07T02:49:35;98326.00;;;17.20
22322;BMP180;11328;53.928;18.522;2023-08-07T02:52:02;98323.00;;;17.30
22322;BMP180;11328;53.928;18.522;2023-08-07T02:54:29;98327.00;;;17.30
22322;BMP180;11328;53.928;18.522;2023-08-07T02:56:57;98319.00;;;17.30
22322;BMP180;11328;53.928;18.522;2023-08-07T02:59:24;98319.00;;;17.10
22322;BMP180;11328;53.928;18.522;2023-08-07T03:01:51;98332.00;;;17.00
22322;BMP180;11328;53.928;18.522;2023-08-07T03:04:18;98333.00;;;17.00
22322;BMP180;11328;53.928;18.522;2023-08-07T03:06:45;98351.00;;;17.10
22322;BMP180;11328;53.928;18.522;2023-08-07T03:09:12;98360.00;;;17.10
22322;BMP180;11328;53.928;18.522;2023-08-07T03:11:39;98346.00;;;17.00
22322;BMP180;11328;53.928;18.522;2023-08-07T03:14:06;98342.00;;;17.00
22322;BMP180;11328;53.928;18.522;2023-08-07T03:16:33;98336.00;;;17.10
22322;BMP180;11328;53.928;18.522;2023-08-07T03:19:00;98337.00;;;17.00
22322;BMP180;11328;53.928;18.522;2023-08-07T03:21:27;98337.00;;;17.00
22322;BMP180;11328;53.928;18.522;2023-08-07T03:23:54;98324.00;;;16.90
22322;BMP180;11328;53.928;18.522;2023-08-07T03:26:21;98332.00;;;16.90
22322;BMP180;11328;53.928;18.522;2023-08-07T03:28:48;98325.00;;;16.90
22322;BMP180;11328;53.928;18.522;2023-08-07T03:31:16;98313.00;;;17.00
22322;BMP180;11328;53.928;18.522;2023-08-07T03:33:43;98324.00;;;16.90
22322;BMP180;11328;53.928;18.522;2023-08-07T03:36:10;98337.00;;;17.00
22322;BMP180;11328;53.928;18.522;2023-08-07T03:38:37;98344.00;;;17.00
22322;BMP180;11328;53.928;18.522;2023-08-07T03:41:04;98340.00;;;17.00
22322;BMP180;11328;53.928;18.522;2023-08-07T03:43:31;98356.00;;;16.90
22322;BMP180;11328;53.928;18.522;2023-08-07T03:45:58;98359.00;;;16.90
22322;BMP180;11328;53.928;18.522;2023-08-07T03:48:29;98401.00;;;17.00
22322;BMP180;11328;53.928;18.522;2023-08-07T03:51:06;98405.00;;;17.00
22322;BMP180;11328;53.928;18.522;2023-08-07T03:53:38;98403.00;;;17.00
22322;BMP180;11328;53.928;18.522;2023-08-07T03:56:04;98401.00;;;16.90
22322;BMP180;11328;53.928;18.522;2023-08-07T03:58:32;98330.00;;;16.90
22322;BMP180;11328;53.928;18.522;2023-08-07T04:00:59;98374.00;;;17.00
22322;BMP180;11328;53.928;18.522;2023-08-07T04:03:26;98378.00;;;17.00
22322;BMP180;11328;53.928;18.522;2023-08-07T04:05:54;98375.00;;;17.00
22322;BMP180;11328;53.928;18.522;2023-08-07T04:08:22;98358.00;;;17.00
22322;BMP180;11328;53.928;18.522;2023-08-07T04:11:05;98357.00;;;17.00
22322;BMP180;11328;53.928;18.522;2023-08-07T04:13:32;98364.00;;;16.90
22322;BMP180;11328;53.928;18.522;2023-08-07T04:15:59;98369.00;;;17.00
22322;BMP180;11328;53.928;18.522;2023-08-07T04:18:28;98367.00;;;17.00
22322;BMP180;11328;53.928;18.522;2023-08-07T04:20:56;98364.00;;;17.00
22322;BMP180;11328;53.928;18.522;2023-08-07T04:23:24;98367.00;;;17.00
22322;BMP180;11328;53.928;18.522;2023-08-07T04:25:53;98367.00;;;16.90
22322;BMP180;11328;53.928;18.522;2023-08-07T04:28:20;98368.00;;;16.90
22322;BMP180;11328;53.928;18.522;2023-08-07T04:30:51;98363.00;;;16.90
22322;BMP180;11328;53.928;18.522;2023-08-07T04:33:20;98372.00;;;17.00
22322;BMP180;11328;53.928;18.522;2023-08-07T04:35:47;98382.00;;;17.00
22322;BMP180;11328;53.928;18.522;2023-08-07T04:38:16;98407.00;;;16.90
22322;BMP180;11328;53.928;18.522;2023-08-07T04:40:47;98406.00;;;16.90
22322;BMP180;11328;53.928;18.522;2023-08-07T04:43:16;98270.00;;;16.90
22322;BMP180;11328;53.928;18.522;2023-08-07T04:45:43;98405.00;;;17.10
22322;BMP180;11328;53.928;18.522;2023-08-07T04:48:12;98402.00;;;17.10
22322;BMP180;11328;53.928;18.522;2023-08-07T04:50:40;98387.00;;;17.10
22322;BMP180;11328;53.928;18.522;2023-08-07T04:53:08;98403.00;;;17.00
22322;BMP180;11328;53.928;18.522;2023-08-07T04:55:35;98406.00;;;17.10
22322;BMP180;11328;53.928;18.522;2023-08-07T04:58:02;98421.00;;;17.30
22322;BMP180;11328;53.928;18.522;2023-08-07T05:00:29;98403.00;;;17.30
22322;BMP180;11328;53.928;18.522;2023-08-07T05:02:56;98400.00;;;17.30
22322;BMP180;11328;53.928;18.522;2023-08-07T05:05:23;98407.00;;;17.20
22322;BMP180;11328;53.928;18.522;2023-08-07T05:07:51;98401.00;;;17.30
22322;BMP180;11328;53.928;18.522;2023-08-07T05:10:18;98417.00;;;17.40
22322;BMP180;11328;53.928;18.522;2023-08-07T05:12:45;98425.00;;;17.40
22322;BMP180;11328;53.928;18.522;2023-08-07T05:15:12;98432.00;;;17.50
22322;BMP180;11328;53.928;18.522;2023-08-07T05:17:39;98443.00;;;17.60
22322;BMP180;11328;53.928;18.522;2023-08-07T05:20:07;98432.00;;;17.60
22322;BMP180;11328;53.928;18.522;2023-08-07T05:22:35;98441.00;;;17.70
22322;BMP180;11328;53.928;18.522;2023-08-07T05:25:03;98438.00;;;17.70
22322;BMP180;11328;53.928;18.522;2023-08-07T05:27:30;98433.00;;;17.60
22322;BMP180;11328;53.928;18.522;2023-08-07T05:29:57;98426.00;;;17.50
22322;BMP180;11328;53.928;18.522;2023-08-07T05:32:24;98418.00;;;17.60
22322;BMP180;11328;53.928;18.522;2023-08-07T05:34:51;98416.00;;;17.70
22322;BMP180;11328;53.928;18.522;2023-08-07T05:37:18;98427.00;;;17.70
22322;BMP180;11328;53.928;18.522;2023-08-07T05:39:45;98415.00;;;17.70
22322;BMP180;11328;53.928;18.522;2023-08-07T05:42:12;98424.00;;;17.60
22322;BMP180;11328;53.928;18.522;2023-08-07T05:44:39;98420.00;;;17.70
22322;BMP180;11328;53.928;18.522;2023-08-07T05:47:07;98412.00;;;17.70
22322;BMP180;11328;53.928;18.522;2023-08-07T05:49:33;98417.00;;;17.70
22322;BMP180;11328;53.928;18.522;2023-08-07T05:52:00;98413.00;;;17.70
22322;BMP180;11328;53.928;18.522;2023-08-07T05:54:27;98420.00;;;17.60
22322;BMP180;11328;53.928;18.522;2023-08-07T05:56:54;98433.00;;;17.70
22322;BMP180;11328;53.928;18.522;2023-08-07T05:59:21;98423.00;;;17.60
22322;BMP180;11328;53.928;18.522;2023-08-07T06:01:48;98432.00;;;17.40
22322;BMP180;11328;53.928;18.522;2023-08-07T06:04:15;98442.00;;;17.60
22322;BMP180;11328;53.928;18.522;2023-08-07T06:06:42;98451.00;;;17.60
22322;BMP180;11328;53.928;18.522;2023-08-07T06:09:09;98458.00;;;17.70
22322;BMP180;11328;53.928;18.522;2023-08-07T06:11:36;98452.00;;;17.90
22322;BMP180;11328;53.928;18.522;2023-08-07T06:14:03;98450.00;;;17.70
22322;BMP180;11328;53.928;18.522;2023-08-07T06:16:30;98439.00;;;17.70
22322;BMP180;11328;53.928;18.522;2023-08-07T06:18:58;98424.00;;;17.70
22322;BMP180;11328;53.928;18.522;2023-08-07T06:21:25;98405.00;;;17.80
22322;BMP180;11328;53.928;18.522;2023-08-07T06:23:52;98417.00;;;17.90
22322;BMP180;11328;53.928;18.522;2023-08-07T06:26:19;98417.00;;;17.80
22322;BMP180;11328;53.928;18.522;2023-08-07T06:28:46;98434.00;;;17.80
22322;BMP180;11328;53.928;18.522;2023-08-07T06:31:13;98432.00;;;17.80
22322;BMP180;11328;53.928;18.522;2023-08-07T06:33:40;98436.00;;;17.90
22322;BMP180;11328;53.928;18.522;2023-08-07T06:36:07;98448.00;;;18.00
22322;BMP180;11328;53.928;18.522;2023-08-07T06:38:37;98466.00;;;18.20
22322;BMP180;11328;53.928;18.522;2023-08-07T06:41:05;98458.00;;;18.20
22322;BMP180;11328;53.928;18.522;2023-08-07T06:43:32;98480.00;;;18.20
22322;BMP180;11328;53.928;18.522;2023-08-07T06:45:59;98478.00;;;18.10
22322;BMP180;11328;53.928;18.522;2023-08-07T06:48:26;98482.00;;;18.00
22322;BMP180;11328;53.928;18.522;2023-08-07T06:50:53;98477.00;;;18.00
22322;BMP180;11328;53.928;18.522;2023-08-07T06:53:20;98484.00;;;18.10
22322;BMP180;11328;53.928;18.522;2023-08-07T06:55:47;98486.00;;;18.10
22322;BMP180;11328;53.928;18.522;2023-08-07T06:58:14;98480.00;;;18.10
22322;BMP180;11328;53.928;18.522;2023-08-07T07:00:41;98482.00;;;18.20
22322;BMP180;11328;53.928;18.522;2023-08-07T07:03:08;98483.00;;;18.20
22322;BMP180;11328;53.928;18.522;2023-08-07T07:05:36;98487.00;;;18.10
22322;BMP180;11328;53.928;18.522;2023-08-07T07:08:04;98492.00;;;18.10
22322;BMP180;11328;53.928;18.522;2023-08-07T07:10:31;98483.00;;;18.00
22322;BMP180;11328;53.928;18.522;2023-08-07T07:12:59;98496.00;;;18.00
22322;BMP180;11328;53.928;18.522;2023-08-07T07:15:26;98497.00;;;18.00
22322;BMP180;11328;53.928;18.522;2023-08-07T07:17:53;98506.00;;;18.10
22322;BMP180;11328;53.928;18.522;2023-08-07T07:20:20;98513.00;;;18.10
22322;BMP180;11328;53.928;18.522;2023-08-07T07:22:47;98520.00;;;18.10
22322;BMP180;11328;53.928;18.522;2023-08-07T07:25:14;98510.00;;;18.10
22322;BMP180;11328;53.928;18.522;2023-08-07T07:27:41;98515.00;;;18.10
22322;BMP180;11328;53.928;18.522;2023-08-07T07:30:09;98521.00;;;18.10
22322;BMP180;11328;53.928;18.522;2023-08-07T07:32:36;98510.00;;;18.10
22322;BMP180;11328;53.928;18.522;2023-08-07T07:35:03;98506.00;;;18.10
22322;BMP180;11328;53.928;18.522;2023-08-07T07:37:31;98508.00;;;18.20
22322;BMP180;11328;53.928;18.522;2023-08-07T07:39:58;98515.00;;;18.30
22322;BMP180;11328;53.928;18.522;2023-08-07T07:42:25;98513.00;;;18.30
22322;BMP180;11328;53.928;18.522;2023-08-07T07:44:52;98516.00;;;18.30
22322;BMP180;11328;53.928;18.522;2023-08-07T07:47:19;98513.00;;;18.40
22322;BMP180;11328;53.928;18.522;2023-08-07T07:49:47;98513.00;;;18.30
22322;BMP180;11328;53.928;18.522;2023-08-07T07:52:15;98517.00;;;18.30
22322;BMP180;11328;53.928;18.522;2023-08-07T07:54:42;98514.00;;;18.40
22322;BMP180;11328;53.928;18.522;2023-08-07T07:57:09;98517.00;;;18.30
22322;BMP180;11328;53.928;18.522;2023-08-07T07:59:36;98509.00;;;18.40
22322;BMP180;11328;53.928;18.522;2023-08-07T08:02:04;98515.00;;;18.30
22322;BMP180;11328;53.928;18.522;2023-08-07T08:04:31;98530.00;;;18.30
22322;BMP180;11328;53.928;18.522;2023-08-07T08:06:58;98529.00;;;18.30
22322;BMP180;11328;53.928;18.522;2023-08-07T08:09:26;98522.00;;;18.40
22322;BMP180;11328;53.928;18.522;2023-08-07T08:11:53;98521.00;;;18.30
22322;BMP180;11328;53.928;18.522;2023-08-07T08:14:20;98527.00;;;18.30
22322;BMP180;11328;53.928;18.522;2023-08-07T08:16:47;98541.00;;;18.30
22322;BMP180;11328;53.928;18.522;2023-08-07T08:19:14;98540.00;;;18.30
22322;BMP180;11328;53.928;18.522;2023-08-07T08:21:43;98535.00;;;18.20
22322;BMP180;11328;53.928;18.522;2023-08-07T08:24:10;98525.00;;;18.20
22322;BMP180;11328;53.928;18.522;2023-08-07T08:26:38;98528.00;;;18.10
22322;BMP180;11328;53.928;18.522;2023-08-07T08:29:06;98534.00;;;18.00
22322;BMP180;11328;53.928;18.522;2023-08-07T08:31:35;98506.00;;;18.10
22322;BMP180;11328;53.928;18.522;2023-08-07T08:34:02;98530.00;;;18.30
22322;BMP180;11328;53.928;18.522;2023-08-07T08:36:30;98537.00;;;18.30
22322;BMP180;11328;53.928;18.522;2023-08-07T08:38:57;98546.00;;;18.40
22322;BMP180;11328;53.928;18.522;2023-08-07T08:41:25;98547.00;;;18.50
22322;BMP180;11328;53.928;18.522;2023-08-07T08:43:54;98548.00;;;18.70
22322;BMP180;11328;53.928;18.522;2023-08-07T08:46:24;98530.00;;;18.70
22322;BMP180;11328;53.928;18.522;2023-08-07T08:48:57;98556.00;;;18.60
22322;BMP180;11328;53.928;18.522;2023-08-07T08:51:25;98555.00;;;18.70
22322;BMP180;11328;53.928;18.522;2023-08-07T08:53:53;98568.00;;;18.80
22322;BMP180;11328;53.928;18.522;2023-08-07T08:56:24;98576.00;;;18.90
22322;BMP180;11328;53.928;18.522;2023-08-07T08:58:51;98579.00;;;18.90
22322;BMP180;11328;53.928;18.522;2023-08-07T09:01:19;98593.00;;;19.10
22322;BMP180;11328;53.928;18.522;2023-08-07T09:03:49;98570.00;;;19.10
22322;BMP180;11328;53.928;18.522;2023-08-07T09:06:19;98586.00;;;19.00
22322;BMP180;11328;53.928;18.522;2023-08-07T09:08:46;98601.00;;;19.00
22322;BMP180;11328;53.928;18.522;2023-08-07T09:11:15;98592.00;;;18.90
22322;BMP180;11328;53.928;18.522;2023-08-07T09:13:44;98603.00;;;18.90
22322;BMP180;11328;53.928;18.522;2023-08-07T09:16:12;98596.00;;;19.00
22322;BMP180;11328;53.928;18.522;2023-08-07T09:18:40;98597.00;;;19.10
22322;BMP180;11328;53.928;18.522;2023-08-07T09:21:07;98595.00;;;19.30
22322;BMP180;11328;53.928;18.522;2023-08-07T09:23:35;98587.00;;;19.80
22322;BMP180;11328;53.928;18.522;2023-08-07T09:26:04;98594.00;;;19.80
22322;BMP180;11328;53.928;18.522;2023-08-07T09:28:32;98599.00;;;19.80
22322;BMP180;11328;53.928;18.522;2023-08-07T09:30:59;98584.00;;;19.70
22322;BMP180;11328;53.928;18.522;2023-08-07T09:33:30;98590.00;;;20.10
22322;BMP180;11328;53.928;18.522;2023-08-07T09:36:01;98585.00;;;20.90
22322;BMP180;11328;53.928;18.522;2023-08-07T09:38:30;98581.00;;;21.10
22322;BMP180;11328;53.928;18.522;2023-08-07T09:41:00;98600.00;;;20.80
22322;BMP180;11328;53.928;18.522;2023-08-07T09:43:36;98608.00;;;20.90
22322;BMP180;11328;53.928;18.522;2023-08-07T09:46:05;98618.00;;;20.90
22322;BMP180;11328;53.928;18.522;2023-08-07T09:48:40;98632.00;;;20.90
22322;BMP180;11328;53.928;18.522;2023-08-07T09:51:08;98635.00;;;20.70
22322;BMP180;11328;53.928;18.522;2023-08-07T09:53:35;98634.00;;;20.70
22322;BMP180;11328;53.928;18.522;2023-08-07T09:56:03;98633.00;;;20.70
22322;BMP180;11328;53.928;18.522;2023-08-07T09:58:30;98658.00;;;20.70
22322;BMP180;11328;53.928;18.522;2023-08-07T10:01:04;98659.00;;;20.70
22322;BMP180;11328;53.928;18.522;2023-08-07T10:03:31;98641.00;;;21.00
22322;BMP180;11328;53.928;18.522;2023-08-07T10:05:59;98644.00;;;21.20
22322;BMP180;11328;53.928;18.522;2023-08-07T10:08:27;98632.00;;;21.20
22322;BMP180;11328;53.928;18.522;2023-08-07T10:10:54;98640.00;;;20.90
22322;BMP180;11328;53.928;18.522;2023-08-07T10:13:23;98647.00;;;20.70
22322;BMP180;11328;53.928;18.522;2023-08-07T10:16:05;98655.00;;;20.90
22322;BMP180;11328;53.928;18.522;2023-08-07T10:18:33;98648.00;;;20.70
22322;BMP180;11328;53.928;18.522;2023-08-07T10:21:03;98660.00;;;20.70
22322;BMP180;11328;53.928;18.522;2023-08-07T10:23:35;98668.00;;;20.80
22322;BMP180;11328;53.928;18.522;2023-08-07T10:26:08;98665.00;;;20.70
22322;BMP180;11328;53.928;18.522;2023-08-07T10:28:40;98661.00;;;20.70
22322;BMP180;11328;53.928;18.522;2023-08-07T10:31:10;98664.00;;;20.50
22322;BMP180;11328;53.928;18.522;2023-08-07T10:33:38;98648.00;;;20.30
22322;BMP180;11328;53.928;18.522;2023-08-07T10:36:10;98670.00;;;20.30
22322;BMP180;11328;53.928;18.522;2023-08-07T10:38:38;98674.00;;;20.40
22322;BMP180;11328;53.928;18.522;2023-08-07T10:41:14;98670.00;;;20.20
22322;BMP180;11328;53.928;18.522;2023-08-07T10:43:45;98667.00;;;20.00
22322;BMP180;11328;53.928;18.522;2023-08-07T10:46:17;98682.00;;;20.00
22322;BMP180;11328;53.928;18.522;2023-08-07T10:48:56;98696.00;;;20.10
22322;BMP180;11328;53.928;18.522;2023-08-07T10:51:29;98700.00;;;19.90
22322;BMP180;11328;53.928;18.522;2023-08-07T10:54:01;98701.00;;;19.70
22322;BMP180;11328;53.928;18.522;2023-08-07T10:56:36;98704.00;;;19.50
22322;BMP180;11328;53.928;18.522;2023-08-07T10:59:12;98701.00;;;19.60
22322;BMP180;11328;53.928;18.522;2023-08-07T11:01:42;98697.00;;;19.70
22322;BMP180;11328;53.928;18.522;2023-08-07T11:04:13;98712.00;;;19.80
22322;BMP180;11328;53.928;18.522;2023-08-07T11:06:46;98715.00;;;19.80
22322;BMP180;11328;53.928;18.522;2023-08-07T11:09:13;98718.00;;;19.80
22322;BMP180;11328;53.928;18.522;2023-08-07T11:11:44;98722.00;;;19.70
22322;BMP180;11328;53.928;18.522;2023-08-07T11:14:19;98726.00;;;19.90
22322;BMP180;11328;53.928;18.522;2023-08-07T11:16:48;98723.00;;;19.90
22322;BMP180;11328;53.928;18.522;2023-08-07T11:19:17;98732.00;;;19.70
22322;BMP180;11328;53.928;18.522;2023-08-07T11:21:45;98723.00;;;19.60
22322;BMP180;11328;53.928;18.522;2023-08-07T11:24:16;98736.00;;;19.40
22322;BMP180;11328;53.928;18.522;2023-08-07T11:26:45;98740.00;;;19.60
22322;BMP180;11328;53.928;18.522;2023-08-07T11:29:19;98736.00;;;19.80
22322;BMP180;11328;53.928;18.522;2023-08-07T11:31:46;98755.00;;;19.80
22322;BMP180;11328;53.928;18.522;2023-08-07T11:34:13;98764.00;;;19.70
22322;BMP180;11328;53.928;18.522;2023-08-07T11:36:43;98744.00;;;19.70
22322;BMP180;11328;53.928;18.522;2023-08-07T11:39:14;98760.00;;;19.80
22322;BMP180;11328;53.928;18.522;2023-08-07T11:41:41;98767.00;;;19.80
22322;BMP180;11328;53.928;18.522;2023-08-07T11:44:09;98757.00;;;19.90
22322;BMP180;11328;53.928;18.522;2023-08-07T11:46:36;98768.00;;;19.80
22322;BMP180;11328;53.928;18.522;2023-08-07T11:49:04;98752.00;;;19.80
22322;BMP180;11328;53.928;18.522;2023-08-07T11:51:32;98748.00;;;19.80
22322;BMP180;11328;53.928;18.522;2023-08-07T11:53:59;98755.00;;;19.50
22322;BMP180;11328;53.928;18.522;2023-08-07T11:56:27;98745.00;;;19.40
22322;BMP180;11328;53.928;18.522;2023-08-07T11:58:54;98740.00;;;19.50
22322;BMP180;11328;53.928;18.522;2023-08-07T12:01:26;98735.00;;;19.50
22322;BMP180;11328;53.928;18.522;2023-08-07T12:03:56;98731.00;;;19.70
22322;BMP180;11328;53.928;18.522;2023-08-07T12:06:25;98730.00;;;19.80
22322;BMP180;11328;53.928;18.522;2023-08-07T12:08:57;98727.00;;;20.10
22322;BMP180;11328;53.928;18.522;2023-08-07T12:11:24;98721.00;;;20.40
22322;BMP180;11328;53.928;18.522;2023-08-07T12:13:51;98718.00;;;20.40
22322;BMP180;11328;53.928;18.522;2023-08-07T12:16:18;98723.00;;;20.40
22322;BMP180;11328;53.928;18.522;2023-08-07T12:18:55;98725.00;;;20.30
22322;BMP180;11328;53.928;18.522;2023-08-07T12:21:23;98724.00;;;19.90
22322;BMP180;11328;53.928;18.522;2023-08-07T12:23:56;98742.00;;;20.00
22322;BMP180;11328;53.928;18.522;2023-08-07T12:26:23;98705.00;;;20.10
22322;BMP180;11328;53.928;18.522;2023-08-07T12:28:50;98707.00;;;20.40
22322;BMP180;11328;53.928;18.522;2023-08-07T12:31:18;98710.00;;;20.60
22322;BMP180;11328;53.928;18.522;2023-08-07T12:33:45;98708.00;;;20.80
22322;BMP180;11328;53.928;18.522;2023-08-07T12:36:12;98699.00;;;20.80
22322;BMP180;11328;53.928;18.522;2023-08-07T12:38:44;98710.00;;;20.60
22322;BMP180;11328;53.928;18.522;2023-08-07T12:41:11;98722.00;;;20.90
22322;BMP180;11328;53.928;18.522;2023-08-07T12:43:41;98745.00;;;21.20
22322;BMP180;11328;53.928;18.522;2023-08-07T12:46:08;98742.00;;;21.20
22322;BMP180;11328;53.928;18.522;2023-08-07T12:48:38;98743.00;;;21.10
22322;BMP180;11328;53.928;18.522;2023-08-07T12:51:05;98751.00;;;21.10
22322;BMP180;11328;53.928;18.522;2023-08-07T12:53:32;98738.00;;;21.10
22322;BMP180;11328;53.928;18.522;2023-08-07T12:55:59;98758.00;;;21.00
22322;BMP180;11328;53.928;18.522;2023-08-07T12:58:26;98752.00;;;21.00
22322;BMP180;11328;53.928;18.522;2023-08-07T13:00:56;98762.00;;;20.90
22322;BMP180;11328;53.928;18.522;2023-08-07T13:03:23;98772.00;;;20.80
22322;BMP180;11328;53.928;18.522;2023-08-07T13:05:50;98783.00;;;20.70
22322;BMP180;11328;53.928;18.522;2023-08-07T13:08:17;98788.00;;;20.40
22322;BMP180;11328;53.928;18.522;2023-08-07T13:10:45;98801.00;;;20.10
22322;BMP180;11328;53.928;18.522;2023-08-07T13:13:19;98824.00;;;20.10
22322;BMP180;11328;53.928;18.522;2023-08-07T13:15:45;98795.00;;;19.90
22322;BMP180;11328;53.928;18.522;2023-08-07T13:18:12;98802.00;;;20.20
22322;BMP180;11328;53.928;18.522;2023-08-07T13:20:41;98779.00;;;20.50
22322;BMP180;11328;53.928;18.522;2023-08-07T13:23:08;98812.00;;;20.70
22322;BMP180;11328;53.928;18.522;2023-08-07T13:25:35;98822.00;;;20.60
22322;BMP180;11328;53.928;18.522;2023-08-07T13:28:03;98813.00;;;20.60
22322;BMP180;11328;53.928;18.522;2023-08-07T13:30:33;98814.00;;;20.50
22322;BMP180;11328;53.928;18.522;2023-08-07T13:33:03;98819.00;;;20.40
22322;BMP180;11328;53.928;18.522;2023-08-07T13:35:31;98843.00;;;20.20
22322;BMP180;11328;53.928;18.522;2023-08-07T13:37:59;98834.00;;;20.00
22322;BMP180;11328;53.928;18.522;2023-08-07T13:40:27;98841.00;;;20.00
22322;BMP180;11328;53.928;18.522;2023-08-07T13:42:53;98841.00;;;19.90
22322;BMP180;11328;53.928;18.522;2023-08-07T13:45:21;98851.00;;;19.80
22322;BMP180;11328;53.928;18.522;2023-08-07T13:47:48;98857.00;;;19.50
22322;BMP180;11328;53.928;18.522;2023-08-07T13:50:15;98860.00;;;19.60
22322;BMP180;11328;53.928;18.522;2023-08-07T13:52:42;98862.00;;;19.40
22322;BMP180;11328;53.928;18.522;2023-08-07T13:55:09;98862.00;;;19.50
22322;BMP180;11328;53.928;18.522;2023-08-07T13:57:36;98848.00;;;19.50
22322;BMP180;11328;53.928;18.522;2023-08-07T14:00:04;98845.00;;;19.50
22322;BMP180;11328;53.928;18.522;2023-08-07T14:02:31;98852.00;;;19.40
22322;BMP180;11328;53.928;18.522;2023-08-07T14:05:01;98841.00;;;19.40
22322;BMP180;11328;53.928;18.522;2023-08-07T14:07:28;98839.00;;;19.50
22322;BMP180;11328;53.928;18.522;2023-08-07T14:09:55;98833.00;;;19.40
22322;BMP180;11328;53.928;18.522;2023-08-07T14:12:23;98838.00;;;19.30